createdAt,value
2022-08-18T00:00:54.491Z,101301.16
2022-08-18T00:03:10.544Z,101297.69
2022-08-18T00:05:22.887Z,101299.47
2022-08-18T00:07:29.604Z,101305.59
2022-08-18T00:09:32.758Z,101303.88
2022-08-18T00:11:52.920Z,101296.00
2022-08-18T00:13:54.798Z,101292.50
2022-08-18T00:15:56.507Z,101301.22
2022-08-18T00:17:58.362Z,101296.03
2022-08-18T00:20:00.312Z,101288.16
2022-08-18T00:22:02.021Z,101297.75
2022-08-18T00:24:04.614Z,101298.72
2022-08-18T00:26:11.965Z,101303.91
2022-08-18T00:28:14.277Z,101297.81
2022-08-18T00:30:20.097Z,101298.66
2022-08-18T00:32:33.879Z,101303.88
2022-08-18T00:34:36.030Z,101301.25
2022-08-18T00:36:40.094Z,101302.97
2022-08-18T00:38:42.088Z,101306.47
2022-08-18T00:40:50.029Z,101302.06
2022-08-18T00:42:56.308Z,101297.75
2022-08-18T00:45:02.247Z,101302.16
2022-08-18T00:47:04.200Z,101303.00
2022-08-18T00:49:06.312Z,101295.16
2022-08-18T00:51:13.323Z,101302.09
2022-08-18T00:53:27.741Z,101292.56
2022-08-18T00:55:32.684Z,101298.63
2022-08-18T00:57:35.949Z,101296.03
2022-08-18T00:59:44.095Z,101295.13
2022-08-18T01:01:52.157Z,101290.78
2022-08-18T01:04:00.428Z,101281.25
2022-08-18T01:06:06.812Z,101282.09
2022-08-18T01:08:14.551Z,101275.06
2022-08-18T01:10:21.070Z,101271.66
2022-08-18T01:12:44.207Z,101269.91
2022-08-18T01:14:46.615Z,101269.03
2022-08-18T01:17:09.368Z,101264.69
2022-08-18T01:19:30.074Z,101275.97
2022-08-18T01:22:00.104Z,101275.94
2022-08-18T01:24:05.922Z,101279.44
2022-08-18T01:26:09.559Z,101280.31
2022-08-18T01:28:20.193Z,101275.97
2022-08-18T01:30:25.702Z,101282.94
2022-08-18T01:32:28.399Z,101283.78
2022-08-18T01:34:30.518Z,101283.84
2022-08-18T01:36:37.594Z,101284.69
2022-08-18T01:38:40.909Z,101280.34
2022-08-18T01:41:23.806Z,101277.72
2022-08-18T01:43:05.665Z,101275.94
2022-08-18T01:45:08.626Z,101277.75
2022-08-18T01:47:12.314Z,101274.22
2022-08-18T01:49:14.765Z,101275.09
2022-08-18T01:51:18.861Z,101276.03
2022-08-18T01:53:20.807Z,101276.03
2022-08-18T01:55:28.496Z,101283.91
2022-08-18T01:57:30.652Z,101287.34
2022-08-18T01:59:32.888Z,101282.97
2022-08-18T02:01:45.249Z,101291.69
2022-08-18T02:04:23.386Z,101292.59
2022-08-18T02:06:33.514Z,101284.69
2022-08-18T02:08:38.894Z,101282.06
2022-08-18T02:10:46.925Z,101281.19
2022-08-18T02:12:48.870Z,101285.63
2022-08-18T02:14:52.070Z,101289.94
2022-08-18T02:16:59.441Z,101283.78
2022-08-18T02:19:04.403Z,101283.78
2022-08-18T02:21:18.897Z,101284.69
2022-08-18T02:23:21.685Z,101281.25
2022-08-18T02:25:23.573Z,101289.91
2022-08-18T02:27:27.244Z,101286.41
2022-08-18T02:29:29.453Z,101277.81
2022-08-18T02:31:31.614Z,101283.00
2022-08-18T02:33:34.360Z,101274.28
2022-08-18T02:35:37.421Z,101273.41
2022-08-18T02:37:50.481Z,101269.09
2022-08-18T02:39:56.724Z,101270.84
2022-08-18T02:41:58.673Z,101267.34
2022-08-18T02:44:00.713Z,101269.94
2022-08-18T02:46:02.957Z,101269.97
2022-08-18T02:48:05.921Z,101267.34
2022-08-18T02:50:08.184Z,101264.72
2022-08-18T02:52:12.890Z,101274.31
2022-08-18T02:54:14.794Z,101277.78
2022-08-18T02:56:39.918Z,101277.78
2022-08-18T02:58:43.666Z,101278.66
2022-08-18T03:00:46.936Z,101280.41
2022-08-18T03:02:51.740Z,101276.06
2022-08-18T03:04:53.764Z,101271.69
2022-08-18T03:06:56.455Z,101278.66
2022-08-18T03:08:58.477Z,101280.41
2022-08-18T03:11:00.479Z,101276.91
2022-08-18T03:13:02.889Z,101276.91
2022-08-18T03:15:05.213Z,101278.66
2022-08-18T03:17:09.305Z,101275.22
2022-08-18T03:19:13.023Z,101279.63
2022-08-18T03:21:18.630Z,101279.63
2022-08-18T03:23:20.628Z,101274.38
2022-08-18T03:25:32.201Z,101275.28
2022-08-18T03:27:34.066Z,101280.44
2022-08-18T03:29:36.982Z,101276.97
2022-08-18T03:31:39.310Z,101278.66
2022-08-18T03:33:45.604Z,101275.19
2022-08-18T03:35:47.693Z,101283.88
2022-08-18T03:37:51.009Z,101288.25
2022-08-18T03:39:53.235Z,101282.16
2022-08-18T03:41:58.508Z,101276.09
2022-08-18T03:44:03.118Z,101281.31
2022-08-18T03:46:07.383Z,101275.19
2022-08-18T03:48:10.409Z,101275.19
2022-08-18T03:50:14.109Z,101270.88
2022-08-18T03:52:16.602Z,101264.75
2022-08-18T03:54:18.614Z,101263.97
2022-08-18T03:56:24.752Z,101271.75
2022-08-18T03:58:34.300Z,101263.06
2022-08-18T04:00:39.233Z,101259.59
2022-08-18T04:02:41.558Z,101262.22
2022-08-18T04:04:43.513Z,101260.50
2022-08-18T04:06:54.318Z,101262.22
2022-08-18T04:08:58.639Z,101261.34
2022-08-18T04:11:00.700Z,101261.31
2022-08-18T04:13:05.629Z,101263.09
2022-08-18T04:15:08.117Z,101264.84
2022-08-18T04:17:10.694Z,101270.91
2022-08-18T04:19:14.497Z,101265.78
2022-08-18T04:21:31.676Z,101260.50
2022-08-18T04:23:44.155Z,101257.88
2022-08-18T04:25:46.637Z,101262.16
2022-08-18T04:27:48.636Z,101260.44
2022-08-18T04:29:51.263Z,101264.78
2022-08-18T04:31:53.246Z,101260.47
2022-08-18T04:33:56.680Z,101262.16
2022-08-18T04:35:58.707Z,101263.03
2022-08-18T04:38:00.823Z,101259.56
2022-08-18T04:40:03.032Z,101261.25
2022-08-18T04:42:06.152Z,101257.00
2022-08-18T04:44:10.317Z,101261.28
2022-08-18T04:46:12.485Z,101262.19
2022-08-18T04:48:16.387Z,101264.78
2022-08-18T04:50:18.442Z,101256.06
2022-08-18T04:52:41.794Z,101258.69
2022-08-18T04:54:43.961Z,101254.31
2022-08-18T04:56:45.861Z,101256.91
2022-08-18T04:58:52.649Z,101262.19
2022-08-18T05:01:00.511Z,101261.31
2022-08-18T05:03:02.524Z,101253.47
2022-08-18T05:05:05.490Z,101250.03
2022-08-18T05:07:12.303Z,101255.22
2022-08-18T05:09:16.874Z,101254.38
2022-08-18T05:11:29.682Z,101256.97
2022-08-18T05:13:31.604Z,101258.72
2022-08-18T05:15:52.691Z,101265.72
2022-08-18T05:17:56.748Z,101263.91
2022-08-18T05:20:01.919Z,101266.50
2022-08-18T05:22:04.651Z,101264.75
2022-08-18T05:24:10.173Z,101265.59
2022-08-18T05:26:16.834Z,101256.88
2022-08-18T05:28:23.537Z,101254.28
2022-08-18T05:30:25.820Z,101261.22
2022-08-18T05:32:46.992Z,101263.06
2022-08-18T05:34:51.202Z,101248.16
2022-08-18T05:37:07.161Z,101258.63
2022-08-18T05:39:36.575Z,101255.94
2022-08-18T05:41:42.118Z,101264.66
2022-08-18T05:43:51.293Z,101260.31
2022-08-18T05:45:55.354Z,101252.44
2022-08-18T05:48:00.567Z,101257.66
2022-08-18T05:50:08.817Z,101262.06
2022-08-18T05:52:18.933Z,101259.44
2022-08-18T05:54:41.168Z,101269.03
2022-08-18T05:56:48.062Z,101260.25
2022-08-18T05:58:55.843Z,101266.38
2022-08-18T06:01:03.288Z,101264.69
2022-08-18T06:03:16.215Z,101264.63
2022-08-18T06:05:38.607Z,101269.88
2022-08-18T06:08:03.371Z,101259.44
2022-08-18T06:10:06.750Z,101262.00
2022-08-18T06:12:37.716Z,101268.09
2022-08-18T06:14:41.434Z,101268.09
2022-08-18T06:17:17.790Z,101266.41
2022-08-18T06:19:49.544Z,101265.47
2022-08-18T06:22:07.664Z,101264.56
2022-08-18T06:24:28.175Z,101263.78
2022-08-18T06:26:49.029Z,101257.63
2022-08-18T06:28:53.755Z,101262.91
2022-08-18T06:31:23.720Z,101256.81
2022-08-18T06:33:41.193Z,101254.22
2022-08-18T06:35:47.453Z,101257.69
2022-08-18T06:38:33.393Z,101261.19
2022-08-18T06:40:35.472Z,101255.88
2022-08-18T06:42:40.379Z,101256.72
2022-08-18T06:44:53.045Z,101262.81
2022-08-18T06:46:57.586Z,101261.03
2022-08-18T06:49:08.580Z,101257.53
2022-08-18T06:51:14.973Z,101266.19
2022-08-18T06:53:27.013Z,101260.88
2022-08-18T06:55:50.535Z,101269.56
2022-08-18T06:58:03.512Z,101266.03
2022-08-18T07:00:21.552Z,101265.97
2022-08-18T07:02:31.503Z,101262.44
2022-08-18T07:04:39.384Z,101269.41
2022-08-18T07:06:41.506Z,101272.03
2022-08-18T07:08:45.414Z,101266.84
2022-08-18T07:10:50.914Z,101269.41
2022-08-18T07:12:52.619Z,101259.88
2022-08-18T07:15:03.470Z,101258.94
2022-08-18T07:17:10.889Z,101258.06
2022-08-18T07:19:16.865Z,101265.81
2022-08-18T07:21:34.277Z,101271.06
2022-08-18T07:23:39.376Z,101275.31
2022-08-18T07:25:46.540Z,101279.69
2022-08-18T07:27:50.736Z,101273.59
2022-08-18T07:30:05.974Z,101276.13
2022-08-18T07:32:21.561Z,101276.97
2022-08-18T07:34:37.244Z,101281.34
2022-08-18T07:36:47.571Z,101280.44
2022-08-18T07:38:54.773Z,101284.75
2022-08-18T07:41:09.143Z,101285.59
2022-08-18T07:43:32.840Z,101286.44
2022-08-18T07:45:45.839Z,101289.03
2022-08-18T07:48:38.046Z,101287.25
2022-08-18T07:51:17.275Z,101281.97
2022-08-18T07:54:00.875Z,101277.56
2022-08-18T07:56:07.367Z,101288.06
2022-08-18T07:58:34.682Z,101277.56
2022-08-18T08:00:59.586Z,101284.50
2022-08-18T08:03:39.019Z,101283.66
2022-08-18T08:05:49.399Z,101278.34
2022-08-18T08:07:53.882Z,101280.94
2022-08-18T08:10:19.043Z,101286.13
2022-08-18T08:12:32.972Z,101298.41
2022-08-18T08:15:05.239Z,101293.06
2022-08-18T08:17:26.832Z,101293.06
2022-08-18T08:20:00.424Z,101290.41
2022-08-18T08:22:05.887Z,101293.91
2022-08-18T08:24:21.132Z,101286.94
2022-08-18T08:26:48.859Z,101286.03
2022-08-18T08:29:20.787Z,101290.47
2022-08-18T08:31:55.101Z,101284.34
2022-08-18T08:34:13.331Z,101284.38
2022-08-18T08:36:23.366Z,101283.53
2022-08-18T08:38:46.635Z,101287.13
2022-08-18T08:40:57.881Z,101286.34
2022-08-18T08:43:18.318Z,101284.56
2022-08-18T08:45:32.490Z,101285.44
2022-08-18T08:47:42.911Z,101288.03
2022-08-18T08:50:00.914Z,101290.59
2022-08-18T08:52:40.400Z,101287.88
2022-08-18T08:54:53.827Z,101289.59
2022-08-18T08:56:59.988Z,101283.47
2022-08-18T08:59:10.182Z,101282.34
2022-08-18T09:01:55.050Z,101290.09
2022-08-18T09:04:16.691Z,101290.94
2022-08-18T09:06:24.416Z,101291.66
2022-08-18T09:09:08.487Z,101281.19
2022-08-18T09:11:22.120Z,101287.38
2022-08-18T09:14:01.590Z,101282.72
2022-08-18T09:16:28.182Z,101283.63
2022-08-18T09:18:51.501Z,101284.34
2022-08-18T09:21:18.636Z,101278.09
2022-08-18T09:23:25.325Z,101277.94
2022-08-18T09:25:42.232Z,101276.28
2022-08-18T09:28:09.934Z,101275.34
2022-08-18T09:30:29.805Z,101282.22
2022-08-18T09:33:18.467Z,101280.47
2022-08-18T09:35:54.815Z,101279.44
2022-08-18T09:38:32.211Z,101283.72
2022-08-18T09:41:02.307Z,101275.75
2022-08-18T09:43:25.974Z,101277.50
2022-08-18T09:47:53.132Z,101278.47
2022-08-18T09:50:27.594Z,101273.22
2022-08-18T09:52:37.529Z,101274.00
2022-08-18T09:54:53.420Z,101267.88
2022-08-18T09:57:06.243Z,101265.88
2022-08-18T09:59:10.899Z,101264.75
2022-08-18T10:01:36.742Z,101258.44
2022-08-18T10:03:38.584Z,101265.13
2022-08-18T10:05:41.536Z,101256.91
2022-08-18T10:07:50.108Z,101256.59
2022-08-18T10:11:02.165Z,101252.94
2022-08-18T10:12:49.300Z,101244.81
2022-08-18T10:15:33.388Z,101243.94
2022-08-18T10:18:08.866Z,101235.78
2022-08-18T10:20:39.251Z,101239.91
2022-08-18T10:22:47.958Z,101245.06
2022-08-18T10:24:56.048Z,101242.50
2022-08-18T10:26:58.788Z,101238.88
2022-08-18T10:29:03.702Z,101236.22
2022-08-18T10:31:10.219Z,101228.50
2022-08-18T10:33:18.470Z,101225.81
2022-08-18T10:35:35.932Z,101228.41
2022-08-18T10:37:46.392Z,101221.34
2022-08-18T10:39:53.622Z,101219.81
2022-08-18T10:42:12.327Z,101219.94
2022-08-18T10:44:28.826Z,101229.41
2022-08-18T10:46:42.597Z,101214.50
2022-08-18T10:49:13.417Z,101226.03
2022-08-18T10:51:37.789Z,101211.16
2022-08-18T10:54:04.761Z,101211.94
2022-08-18T10:56:26.766Z,101217.03
2022-08-18T10:58:40.748Z,101214.88
2022-08-18T11:01:12.109Z,101213.56
2022-08-18T11:03:51.343Z,101211.69
2022-08-18T11:06:06.727Z,101214.34
2022-08-18T11:08:31.781Z,101212.56
2022-08-18T11:11:27.778Z,101207.94
2022-08-18T11:13:16.387Z,101206.97
2022-08-18T11:15:38.530Z,101206.69
2022-08-18T11:18:04.550Z,101197.53
2022-08-18T11:20:09.731Z,101195.56
2022-08-18T11:22:35.660Z,101196.44
2022-08-18T11:24:45.038Z,101190.72
2022-08-18T11:26:53.527Z,101191.06
2022-08-18T11:28:55.503Z,101187.47
2022-08-18T11:30:58.304Z,101189.88
2022-08-18T11:33:02.656Z,101191.25
2022-08-18T11:35:12.899Z,101188.28
2022-08-18T11:37:51.397Z,101179.88
2022-08-18T11:39:59.039Z,101167.97
2022-08-18T11:42:01.160Z,101168.66
2022-08-18T11:44:05.691Z,101161.38
2022-08-18T11:46:29.332Z,101160.19
2022-08-18T11:48:52.098Z,101170.25
2022-08-18T11:50:55.802Z,101167.50
2022-08-18T11:53:18.943Z,101157.38
2022-08-18T11:55:36.061Z,101152.63
2022-08-18T11:57:56.177Z,101161.81
2022-08-18T12:00:44.024Z,101159.53
2022-08-18T12:02:46.115Z,101149.03
2022-08-18T12:04:53.363Z,101171.13
2022-08-18T12:07:08.370Z,101174.38
2022-08-18T12:09:54.185Z,101152.56
2022-08-18T12:11:55.933Z,101155.63
2022-08-18T12:16:41.959Z,101150.44
2022-08-18T12:18:48.420Z,101153.63
2022-08-18T12:20:51.410Z,101152.91
2022-08-18T12:22:57.240Z,101138.47
2022-08-18T12:24:59.240Z,101144.59
2022-08-18T12:27:01.129Z,101143.69
2022-08-18T12:29:03.149Z,101135.41
2022-08-18T12:31:14.885Z,101148.69
2022-08-18T12:35:47.968Z,101139.56
2022-08-18T12:38:13.395Z,101130.75
2022-08-18T12:40:13.099Z,101114.19
2022-08-18T12:42:15.254Z,101109.47
2022-08-18T12:44:20.152Z,101117.38
2022-08-18T12:46:22.516Z,101115.19
2022-08-18T12:48:34.578Z,101125.94
2022-08-18T12:50:50.087Z,101122.28
2022-08-18T12:52:56.644Z,101118.94
2022-08-18T12:54:59.219Z,101114.59
2022-08-18T12:57:01.422Z,101117.78
2022-08-18T12:59:06.034Z,101113.28
2022-08-18T13:01:08.045Z,101112.03
2022-08-18T13:03:10.131Z,101110.25
2022-08-18T13:05:12.546Z,101111.25
2022-08-18T13:07:16.105Z,101116.91
2022-08-18T13:09:34.298Z,101117.69
2022-08-18T13:11:44.056Z,101100.63
2022-08-18T13:13:46.546Z,101108.16
2022-08-18T13:15:58.329Z,101115.06
2022-08-18T13:18:02.890Z,101105.41
2022-08-18T13:20:11.312Z,101112.06
2022-08-18T13:22:15.831Z,101107.75
2022-08-18T13:24:22.168Z,101110.47
2022-08-18T13:26:36.604Z,101115.44
2022-08-18T13:28:51.579Z,101101.03
2022-08-18T13:30:59.052Z,101095.75
2022-08-18T13:33:05.474Z,101101.16
2022-08-18T13:35:24.250Z,101102.88
2022-08-18T13:37:28.669Z,101101.03
2022-08-18T13:39:34.469Z,101094.16
2022-08-18T13:41:36.591Z,101104.09
2022-08-18T13:43:44.050Z,101102.09
2022-08-18T13:45:52.970Z,101101.13
2022-08-18T13:47:58.410Z,101091.19
2022-08-18T13:50:05.194Z,101088.94
2022-08-18T13:52:33.105Z,101094.69
2022-08-18T13:54:38.852Z,101083.53
2022-08-18T13:56:41.331Z,101086.91
2022-08-18T13:58:53.721Z,101082.41
2022-08-18T14:01:23.184Z,101085.88
2022-08-18T14:03:42.661Z,101083.41
2022-08-18T14:05:51.307Z,101086.66
2022-08-18T14:07:54.850Z,101080.78
2022-08-18T14:10:04.470Z,101082.34
2022-08-18T14:12:23.252Z,101073.28
2022-08-18T14:14:26.367Z,101077.00
2022-08-18T14:16:30.837Z,101077.38
2022-08-18T14:18:33.103Z,101081.91
2022-08-18T14:20:53.870Z,101079.50
2022-08-18T14:23:21.937Z,101077.31
2022-08-18T14:25:44.708Z,101077.31
2022-08-18T14:27:56.152Z,101074.59
2022-08-18T14:29:59.091Z,101076.84
2022-08-18T14:32:02.093Z,101077.16
2022-08-18T14:34:04.687Z,101091.25
2022-08-18T14:36:09.840Z,101081.19
2022-08-18T14:38:11.855Z,101085.91
2022-08-18T14:40:13.665Z,101080.44
2022-08-18T14:42:16.684Z,101078.13
2022-08-18T14:44:23.952Z,101067.91
2022-08-18T14:46:30.460Z,101080.38
2022-08-18T14:48:38.737Z,101084.75
2022-08-18T14:50:49.362Z,101085.34
2022-08-18T14:52:52.036Z,101075.69
2022-08-18T14:54:55.484Z,101079.06
2022-08-18T14:56:58.830Z,101082.16
2022-08-18T14:59:00.959Z,101078.88
2022-08-18T15:01:08.356Z,101082.41
2022-08-18T15:03:12.287Z,101075.44
2022-08-18T15:05:19.634Z,101068.84
2022-08-18T15:07:26.714Z,101069.66
2022-08-18T15:09:30.377Z,101056.13
2022-08-18T15:11:33.740Z,101067.19
2022-08-18T15:13:36.711Z,101053.31
2022-08-18T15:15:42.339Z,101058.16
2022-08-18T15:17:53.358Z,101062.66
2022-08-18T15:20:00.347Z,101054.53
2022-08-18T15:22:21.346Z,101048.41
2022-08-18T15:24:42.597Z,101049.41
2022-08-18T15:26:46.065Z,101061.34
2022-08-18T15:28:53.514Z,101063.56
2022-08-18T15:33:18.562Z,101054.94
2022-08-18T15:35:26.320Z,101047.56
2022-08-18T15:37:29.430Z,101039.59
2022-08-18T15:39:33.823Z,101050.72
2022-08-18T15:41:48.764Z,101048.75
2022-08-18T15:43:51.030Z,101060.88
2022-08-18T15:45:58.320Z,101057.50
2022-08-18T15:48:00.379Z,101055.38
2022-08-18T15:50:06.700Z,101049.03
2022-08-18T15:52:26.013Z,101050.63
2022-08-18T15:54:28.237Z,101049.78
2022-08-18T15:56:34.359Z,101050.06
2022-08-18T15:58:36.468Z,101056.22
2022-08-18T16:00:45.368Z,101064.53
2022-08-18T16:02:59.274Z,101058.09
2022-08-18T16:05:08.428Z,101065.63
2022-08-18T16:07:12.168Z,101062.34
2022-08-18T16:09:14.661Z,101058.88
2022-08-18T16:11:28.977Z,101060.81
2022-08-18T16:13:31.394Z,101070.44
2022-08-18T16:15:41.096Z,101057.59
2022-08-18T16:17:43.237Z,101080.13
2022-08-18T16:19:49.998Z,101066.25
2022-08-18T16:21:52.531Z,101060.19
2022-08-18T16:23:55.738Z,101065.91
2022-08-18T16:26:02.498Z,101064.16
2022-08-18T16:28:06.298Z,101057.63
2022-08-18T16:30:11.278Z,101056.47
2022-08-18T16:32:16.376Z,101061.81
2022-08-18T16:34:18.504Z,101052.91
2022-08-18T16:36:21.574Z,101048.41
2022-08-18T16:38:36.574Z,101050.28
2022-08-18T16:40:40.491Z,101045.75
2022-08-18T16:42:42.454Z,101031.97
2022-08-18T16:44:45.274Z,101029.66
2022-08-18T16:46:47.153Z,101043.44
2022-08-18T16:48:49.351Z,101043.38
2022-08-18T16:50:51.510Z,101034.25
2022-08-18T16:52:53.497Z,101038.78
2022-08-18T16:54:57.503Z,101032.28
2022-08-18T16:57:00.158Z,101028.88
2022-08-18T16:59:20.528Z,101029.81
2022-08-18T17:01:48.522Z,101031.81
2022-08-18T17:04:13.408Z,101026.03
2022-08-18T17:06:18.734Z,101033.59
2022-08-18T17:08:36.937Z,101029.38
2022-08-18T17:10:40.171Z,101034.97
2022-08-18T17:12:42.090Z,101034.94
2022-08-18T17:14:43.834Z,101024.47
2022-08-18T17:16:46.437Z,101017.34
2022-08-18T17:18:48.906Z,101020.75
2022-08-18T17:20:51.733Z,101027.75
2022-08-18T17:22:53.816Z,101026.03
2022-08-18T17:25:01.380Z,101018.19
2022-08-18T17:27:25.980Z,101028.09
2022-08-18T17:29:46.006Z,101015.69
2022-08-18T17:31:56.556Z,101017.41
2022-08-18T17:34:04.518Z,101017.69
2022-08-18T17:36:11.798Z,101024.41
2022-08-18T17:38:34.246Z,101020.13
2022-08-18T17:40:42.813Z,101010.91
2022-08-18T17:42:44.681Z,101018.88
2022-08-18T17:44:56.520Z,101012.63
2022-08-18T17:47:00.726Z,101020.41
2022-08-18T17:49:45.563Z,101018.94
2022-08-18T17:51:52.553Z,101022.72
2022-08-18T17:54:01.363Z,101025.44
2022-08-18T17:56:12.568Z,101024.88
2022-08-18T17:58:29.080Z,101031.66
2022-08-18T18:00:33.908Z,101029.84
2022-08-18T18:02:35.913Z,101027.28
2022-08-18T18:04:40.392Z,101032.50
2022-08-18T18:06:43.990Z,101032.34
2022-08-18T18:09:04.053Z,101034.28
2022-08-18T18:11:11.647Z,101035.47
2022-08-18T18:13:24.563Z,101038.97
2022-08-18T18:15:32.486Z,101031.81
2022-08-18T18:17:39.471Z,101029.16
2022-08-18T18:19:43.364Z,101035.41
2022-08-18T18:22:00.522Z,101025.56
2022-08-18T18:24:06.437Z,101019.53
2022-08-18T18:26:22.948Z,101019.81
2022-08-18T18:28:31.963Z,101018.44
2022-08-18T18:30:33.785Z,101031.72
2022-08-18T18:32:59.204Z,101037.75
2022-08-18T18:35:21.057Z,101036.56
2022-08-18T18:37:28.790Z,101050.75
2022-08-18T18:39:35.709Z,101042.38
2022-08-18T18:41:40.111Z,101034.09
2022-08-18T18:43:46.921Z,101036.31
2022-08-18T18:46:19.479Z,101031.72
2022-08-18T18:48:51.116Z,101033.44
2022-08-18T18:51:12.320Z,101028.16
2022-08-18T18:53:22.237Z,101030.91
2022-08-18T18:55:27.856Z,101018.63
2022-08-18T18:57:41.713Z,101017.75
2022-08-18T19:00:15.511Z,101027.69
2022-08-18T19:02:58.808Z,101023.63
2022-08-18T19:05:07.943Z,101031.88
2022-08-18T19:07:24.274Z,101046.38
2022-08-18T19:09:43.173Z,101049.72
2022-08-18T19:12:03.803Z,101051.97
2022-08-18T19:14:15.022Z,101045.88
2022-08-18T19:16:23.646Z,101064.97
2022-08-18T19:18:59.759Z,101050.09
2022-08-18T19:22:04.682Z,101062.75
2022-08-18T19:23:46.453Z,101064.34
2022-08-18T19:25:53.547Z,101066.34
2022-08-18T19:28:05.671Z,101071.84
2022-08-18T19:30:13.143Z,101066.78
2022-08-18T19:32:20.721Z,101075.03
2022-08-18T19:34:31.393Z,101074.84
2022-08-18T19:36:59.073Z,101069.88
2022-08-18T19:39:13.426Z,101070.09
2022-08-18T19:41:20.125Z,101068.78
2022-08-18T19:43:41.201Z,101075.97
2022-08-18T19:45:53.415Z,101092.00
2022-08-18T19:48:01.181Z,101087.00
2022-08-18T19:50:21.985Z,101084.38
2022-08-18T19:52:51.311Z,101075.56
2022-08-18T19:55:01.306Z,101083.50
2022-08-18T19:57:03.782Z,101090.38
2022-08-18T19:59:23.070Z,101091.38
2022-08-18T20:01:50.710Z,101095.16
2022-08-18T20:04:10.776Z,101094.44
2022-08-18T20:06:51.625Z,101092.00
2022-08-18T20:08:59.965Z,101093.69
2022-08-18T20:11:17.375Z,101096.88
2022-08-18T20:13:37.179Z,101102.97
2022-08-18T20:16:10.892Z,101104.06
2022-08-18T20:18:37.592Z,101095.16
2022-08-18T20:20:39.822Z,101096.34
2022-08-18T20:22:48.185Z,101091.00
2022-08-18T20:25:06.099Z,101090.44
2022-08-18T20:27:21.762Z,101093.06
2022-08-18T20:29:48.644Z,101097.72
2022-08-18T20:32:00.110Z,101094.06
2022-08-18T20:34:14.294Z,101090.38
2022-08-18T20:36:30.563Z,101097.59
2022-08-18T20:38:41.983Z,101100.94
2022-08-18T20:40:49.860Z,101103.00
2022-08-18T20:42:57.459Z,101092.66
2022-08-18T20:45:21.630Z,101095.22
2022-08-18T20:48:08.108Z,101104.00
2022-08-18T20:50:38.761Z,101100.53
2022-08-18T20:52:46.336Z,101103.31
2022-08-18T20:55:11.595Z,101101.47
2022-08-18T20:57:15.013Z,101098.16
2022-08-18T20:59:21.093Z,101098.16
2022-08-18T21:01:27.255Z,101092.91
2022-08-18T21:03:42.310Z,101086.09
2022-08-18T21:05:46.117Z,101094.00
2022-08-18T21:08:06.042Z,101102.25
2022-08-18T21:10:31.191Z,101102.34
2022-08-18T21:12:35.684Z,101100.50
2022-08-18T21:14:37.616Z,101107.53
2022-08-18T21:16:45.345Z,101103.97
2022-08-18T21:18:59.038Z,101094.41
2022-08-18T21:21:02.970Z,101086.56
2022-08-18T21:23:11.839Z,101104.91
2022-08-18T21:25:15.728Z,101109.53
2022-08-18T21:27:35.489Z,101102.41
2022-08-18T21:29:47.107Z,101098.03
2022-08-18T21:31:50.856Z,101090.28
2022-08-18T21:33:56.152Z,101100.72
2022-08-18T21:35:58.490Z,101090.16
2022-08-18T21:38:02.555Z,101093.75
2022-08-18T21:40:05.675Z,101097.44
2022-08-18T21:42:08.379Z,101091.16
2022-08-18T21:44:28.096Z,101095.50
2022-08-18T21:46:30.894Z,101085.94
2022-08-18T21:48:34.315Z,101088.47
2022-08-18T21:50:38.796Z,101087.66
2022-08-18T21:52:56.545Z,101092.91
2022-08-18T21:55:05.138Z,101094.81
2022-08-18T21:57:21.970Z,101102.53
2022-08-18T21:59:23.675Z,101093.84
2022-08-18T22:01:30.220Z,101094.00
2022-08-18T22:03:33.107Z,101089.53
2022-08-18T22:05:57.985Z,101089.56
2022-08-18T22:08:00.999Z,101095.75
2022-08-18T22:10:40.225Z,101094.84
2022-08-18T22:13:14.579Z,101091.25
2022-08-18T22:15:20.823Z,101090.66
2022-08-18T22:17:25.297Z,101084.59
2022-08-18T22:19:27.142Z,101088.22
2022-08-18T22:21:41.158Z,101083.09
2022-08-18T22:24:05.207Z,101081.44
2022-08-18T22:26:25.611Z,101078.72
2022-08-18T22:28:31.738Z,101086.91
2022-08-18T22:30:33.446Z,101084.56
2022-08-18T22:32:38.603Z,101091.63
2022-08-18T22:34:40.804Z,101083.63
2022-08-18T22:36:47.230Z,101077.69
2022-08-18T22:38:49.584Z,101087.34
2022-08-18T22:40:51.661Z,101087.56
2022-08-18T22:42:53.506Z,101089.31
2022-08-18T22:44:58.085Z,101080.56
2022-08-18T22:47:04.507Z,101083.13
2022-08-18T22:49:06.158Z,101083.06
2022-08-18T22:51:08.569Z,101091.78
2022-08-18T22:53:10.499Z,101093.50
2022-08-18T22:55:14.876Z,101087.34
2022-08-18T22:57:21.173Z,101089.31
2022-08-18T22:59:25.648Z,101089.44
2022-08-18T23:01:30.025Z,101079.72
2022-08-18T23:03:31.998Z,101083.97
2022-08-18T23:05:38.831Z,101086.66
2022-08-18T23:07:40.571Z,101076.22
2022-08-18T23:09:42.246Z,101084.09
2022-08-18T23:11:43.902Z,101082.31
2022-08-18T23:13:45.599Z,101089.34
2022-08-18T23:15:47.694Z,101086.66
2022-08-18T23:17:49.420Z,101082.50
2022-08-18T23:19:52.043Z,101081.66
2022-08-18T23:21:54.101Z,101093.06
2022-08-18T23:23:56.353Z,101088.06
2022-08-18T23:25:58.978Z,101080.09
2022-08-18T23:28:02.391Z,101088.97
2022-08-18T23:30:05.285Z,101093.28
2022-08-18T23:32:07.497Z,101097.66
2022-08-18T23:34:11.422Z,101095.06
2022-08-18T23:36:13.148Z,101101.88
2022-08-18T23:38:17.396Z,101098.44
2022-08-18T23:40:19.579Z,101106.19
2022-08-18T23:42:23.128Z,101102.69
2022-08-18T23:44:27.834Z,101103.50
2022-08-18T23:46:31.949Z,101105.25
2022-08-18T23:48:35.723Z,101106.03
2022-08-18T23:50:44.627Z,101107.75
2022-08-18T23:52:47.595Z,101112.00
2022-08-18T23:54:49.454Z,101114.63
2022-08-18T23:56:51.339Z,101110.22
2022-08-18T23:58:56.299Z,101108.66
